Time;durP1;ratioP1;P1;durP2;ratioP2;P2;SDS_P1;SDS_P2;PMS_P1;PMS_P2;Temp;Humidity;BMP_temperature;BMP_pressure;BME280_temperature;BME280_humidity;BME280_pressure;Samples;Min_cycle;Max_cycle;Signal;HPM_P1;HPM_P2
2022/07/25 00:01:32;;;;;;;5.00;2.90;;;22.40;99.90;;;;;;5073447;28;20506;-81
2022/07/25 00:04:19;;;;;;;7.60;2.97;;;22.40;99.90;;;;;;5089430;28;20121;-81
2022/07/25 00:07:05;;;;;;;4.47;2.60;;;22.40;99.90;;;;;;5089476;28;20056;-80
2022/07/25 00:09:51;;;;;;;6.32;2.88;;;22.30;99.90;;;;;;5075408;28;20510;-81
2022/07/25 00:12:38;;;;;;;4.80;2.65;;;22.30;99.90;;;;;;5072607;28;20122;-81
2022/07/25 00:15:24;;;;;;;5.47;3.00;;;22.30;99.90;;;;;;5072155;28;20052;-81
2022/07/25 00:18:10;;;;;;;6.82;2.70;;;22.20;99.90;;;;;;5071305;28;20437;-81
2022/07/25 00:20:56;;;;;;;5.95;2.72;;;22.20;99.90;;;;;;5077858;28;20164;-82
2022/07/25 00:23:42;;;;;;;5.72;3.45;;;22.20;99.90;;;;;;5093635;28;20048;-81
2022/07/25 00:26:29;;;;;;;6.45;3.55;;;22.10;99.90;;;;;;5094502;28;20060;-81
2022/07/25 00:29:15;;;;;;;5.63;3.03;;;22.00;99.90;;;;;;5095742;28;20072;-82
2022/07/25 00:32:01;;;;;;;6.03;3.53;;;22.00;99.90;;;;;;5080558;28;20055;-81
2022/07/25 00:34:47;;;;;;;6.78;3.45;;;22.00;99.90;;;;;;5080150;28;20492;-81
2022/07/25 00:37:33;;;;;;;4.63;2.88;;;21.90;99.90;;;;;;5093924;28;20052;-81
2022/07/25 00:40:20;;;;;;;6.78;2.63;;;21.90;99.90;;;;;;5094349;28;20475;-81
2022/07/25 00:43:06;;;;;;;5.65;3.30;;;21.90;99.90;;;;;;5098673;28;20055;-81
2022/07/25 00:45:53;;;;;;;5.93;2.92;;;21.90;99.90;;;;;;5098126;28;20044;-80
2022/07/25 00:48:42;;;;;;;6.28;3.40;;;21.90;99.90;;;;;;5095228;28;20137;-81
2022/07/25 00:51:29;;;;;;;6.45;3.72;;;21.90;99.90;;;;;;5094923;28;20472;-81
2022/07/25 00:54:16;;;;;;;5.35;3.33;;;21.80;99.90;;;;;;5094362;28;20463;-80
2022/07/25 00:57:02;;;;;;;5.47;3.45;;;21.80;99.90;;;;;;5092881;28;20143;-80
2022/07/25 00:59:52;;;;;;;5.75;3.50;;;21.80;99.90;;;;;;5093042;28;20052;-81
2022/07/25 01:02:38;;;;;;;4.70;3.42;;;21.70;99.90;;;;;;5093152;28;20051;-81
2022/07/25 01:05:25;;;;;;;6.47;3.45;;;21.70;99.90;;;;;;5075288;28;20047;-80
2022/07/25 01:08:12;;;;;;;5.68;3.22;;;21.70;99.90;;;;;;5061803;28;20040;-81
2022/07/25 01:10:58;;;;;;;6.72;3.40;;;21.70;99.90;;;;;;5076864;28;20052;-81
2022/07/25 01:13:44;;;;;;;6.07;3.47;;;21.60;99.90;;;;;;5092086;28;20597;-80
2022/07/25 01:16:31;;;;;;;5.55;2.78;;;21.60;99.90;;;;;;5061692;28;20048;-81
2022/07/25 01:19:17;;;;;;;5.75;3.60;;;21.60;99.90;;;;;;5059243;28;20586;-81
2022/07/25 01:22:03;;;;;;;7.68;3.75;;;21.60;99.90;;;;;;5092194;28;20083;-81
2022/07/25 01:24:50;;;;;;;17.00;4.95;;;21.60;99.90;;;;;;5092036;28;20403;-80
2022/07/25 01:27:36;;;;;;;5.25;3.40;;;21.60;99.90;;;;;;5073997;28;20048;-82
2022/07/25 01:30:23;;;;;;;5.45;2.92;;;21.50;99.90;;;;;;5074561;28;20047;-80
2022/07/25 01:33:15;;;;;;;5.45;3.10;;;21.50;99.90;;;;;;5091492;28;20040;-80
2022/07/25 01:36:01;;;;;;;7.75;3.92;;;21.50;99.90;;;;;;5091492;28;20104;-81
2022/07/25 01:38:48;;;;;;;5.95;3.53;;;21.40;99.90;;;;;;5075730;28;20048;-82
2022/07/25 01:41:34;;;;;;;6.65;3.45;;;21.40;99.90;;;;;;5093258;28;20055;-80
2022/07/25 01:44:20;;;;;;;7.88;3.28;;;21.40;99.90;;;;;;5091651;28;20121;-81
2022/07/25 01:47:07;;;;;;;5.70;3.80;;;21.30;99.90;;;;;;5078426;28;20051;-82
2022/07/25 01:49:53;;;;;;;10.10;2.97;;;21.30;99.90;;;;;;5091172;28;20044;-82
2022/07/25 01:52:40;;;;;;;4.78;3.38;;;21.20;99.90;;;;;;5078092;28;20048;-82
2022/07/25 01:55:26;;;;;;;6.03;3.65;;;21.20;99.90;;;;;;5094080;28;20040;-81
2022/07/25 01:58:12;;;;;;;5.22;3.30;;;21.10;99.90;;;;;;5091580;28;20052;-80
2022/07/25 02:00:58;;;;;;;5.47;3.10;;;21.10;99.90;;;;;;5092260;28;20040;-80
2022/07/25 02:03:48;;;;;;;6.80;3.20;;;21.00;99.90;;;;;;5061283;28;20047;-80
2022/07/25 02:06:34;;;;;;;6.07;3.20;;;21.00;99.90;;;;;;5069124;28;20096;-80
2022/07/25 02:09:20;;;;;;;5.72;3.10;;;20.90;99.90;;;;;;5092233;28;20085;-80
2022/07/25 02:12:07;;;;;;;5.32;2.90;;;20.90;99.90;;;;;;5090514;28;20048;-80
2022/07/25 02:14:53;;;;;;;8.02;3.92;;;20.90;99.90;;;;;;5073421;28;20049;-81
2022/07/25 02:17:39;;;;;;;4.68;3.28;;;20.90;99.90;;;;;;5073616;28;20055;-81
2022/07/25 02:20:26;;;;;;;7.28;3.78;;;20.90;99.90;;;;;;5072698;28;20078;-81
2022/07/25 02:23:12;;;;;;;5.82;3.50;;;20.90;99.90;;;;;;5090788;28;20044;-79
2022/07/25 02:25:58;;;;;;;6.20;4.13;;;20.90;99.90;;;;;;5091082;28;20491;-80
2022/07/25 02:28:44;;;;;;;6.22;3.83;;;20.90;99.90;;;;;;5062049;28;20040;-81
2022/07/25 02:31:31;;;;;;;6.60;4.03;;;21.00;99.90;;;;;;5074497;28;20052;-81
2022/07/25 02:34:17;;;;;;;7.13;4.05;;;21.00;99.90;;;;;;5046420;28;20047;-81
2022/07/25 02:37:03;;;;;;;6.05;4.10;;;21.00;99.90;;;;;;5078828;28;20040;-80
2022/07/25 02:39:50;;;;;;;8.77;3.42;;;21.00;99.90;;;;;;5093871;28;20052;-80
2022/07/25 02:42:36;;;;;;;6.80;4.43;;;21.00;99.90;;;;;;5072523;28;20048;-81
2022/07/25 02:45:22;;;;;;;6.50;4.30;;;21.00;99.90;;;;;;5094183;28;20047;-80
2022/07/25 02:48:08;;;;;;;5.75;4.00;;;21.00;99.90;;;;;;5075264;28;20044;-80
2022/07/25 02:50:54;;;;;;;6.35;4.18;;;21.00;99.90;;;;;;5073171;28;20040;-79
2022/07/25 02:53:41;;;;;;;5.68;3.58;;;21.00;99.90;;;;;;5090639;28;20374;-79
2022/07/25 02:56:27;;;;;;;6.47;3.92;;;21.00;99.90;;;;;;5058092;28;20075;-81
2022/07/25 02:59:13;;;;;;;6.30;4.45;;;21.00;99.90;;;;;;5072504;28;20040;-80
2022/07/25 03:01:59;;;;;;;6.40;4.13;;;21.00;99.90;;;;;;5090135;28;20044;-80
2022/07/25 03:04:45;;;;;;;5.82;4.10;;;21.00;99.90;;;;;;5090075;28;20122;-80
2022/07/25 03:07:32;;;;;;;5.90;4.05;;;21.00;99.90;;;;;;5090129;28;20057;-80
2022/07/25 03:10:18;;;;;;;6.35;4.22;;;20.90;99.90;;;;;;5090955;28;20093;-80
2022/07/25 03:13:04;;;;;;;7.75;4.25;;;20.90;99.90;;;;;;5072268;28;20105;-81
2022/07/25 03:20:14;;;;;;;6.55;4.63;;;20.80;99.90;;;;;;5090915;28;20078;-80
2022/07/25 03:23:00;;;;;;;8.38;4.13;;;20.80;99.90;;;;;;5090576;28;20097;-79
2022/07/25 03:25:46;;;;;;;7.45;5.13;;;20.80;99.90;;;;;;5071236;28;20140;-81
2022/07/25 03:28:33;;;;;;;6.43;4.60;;;20.70;99.90;;;;;;5076277;28;20052;-80
2022/07/25 03:31:19;;;;;;;8.23;5.50;;;20.70;99.90;;;;;;5072665;28;20534;-80
2022/07/25 03:34:05;;;;;;;6.45;4.82;;;20.70;99.90;;;;;;5074578;28;20055;-80
2022/07/25 03:36:51;;;;;;;5.95;4.60;;;20.70;99.90;;;;;;5089717;28;20087;-80
2022/07/25 03:39:37;;;;;;;8.13;4.65;;;20.70;99.90;;;;;;5075106;28;20055;-80
2022/07/25 03:42:24;;;;;;;10.40;5.13;;;20.70;99.90;;;;;;5091553;28;20403;-81
2022/07/25 03:45:10;;;;;;;6.32;4.72;;;20.70;99.90;;;;;;5091135;28;20040;-80
2022/07/25 03:47:57;;;;;;;6.47;4.75;;;20.70;99.90;;;;;;5075064;28;20140;-79
2022/07/25 03:50:43;;;;;;;8.40;4.78;;;20.60;99.90;;;;;;5079152;28;20051;-81
2022/07/25 03:53:29;;;;;;;6.85;4.95;;;20.60;99.90;;;;;;5094576;28;20048;-82
2022/07/25 03:56:15;;;;;;;8.18;4.93;;;20.70;99.90;;;;;;5078086;28;20070;-80
2022/07/25 03:59:03;;;;;;;9.77;4.72;;;20.60;99.90;;;;;;5096067;28;20150;-81
2022/07/25 04:01:50;;;;;;;6.70;4.32;;;20.60;99.90;;;;;;5095846;28;20090;-81
2022/07/25 04:04:36;;;;;;;7.22;4.32;;;20.60;99.90;;;;;;5096180;28;20048;-80
2022/07/25 04:07:22;;;;;;;8.35;4.60;;;20.60;99.90;;;;;;5076967;28;20072;-81
2022/07/25 04:10:09;;;;;;;8.13;4.75;;;20.60;99.90;;;;;;5076402;28;20159;-82
2022/07/25 04:12:55;;;;;;;6.65;4.15;;;20.60;99.90;;;;;;5081731;28;20048;-81
2022/07/25 04:15:41;;;;;;;6.57;4.82;;;20.60;99.90;;;;;;5098255;28;20074;-81
2022/07/25 04:18:28;;;;;;;8.20;3.97;;;20.70;99.90;;;;;;5087313;28;20051;-81
2022/07/25 04:21:15;;;;;;;6.55;4.07;;;20.70;99.90;;;;;;5100937;28;20044;-80
2022/07/25 04:24:01;;;;;;;7.45;4.10;;;20.70;99.90;;;;;;5078650;28;20052;-80
2022/07/25 04:26:47;;;;;;;7.60;5.22;;;20.70;99.90;;;;;;5077613;28;20059;-80
2022/07/25 04:29:33;;;;;;;8.75;5.40;;;20.70;99.90;;;;;;5086253;28;20097;-80
2022/07/25 04:32:19;;;;;;;8.48;5.68;;;20.80;99.90;;;;;;5107315;28;20032;-80
2022/07/25 04:35:06;;;;;;;8.35;5.25;;;20.80;99.90;;;;;;5086899;28;20082;-81
2022/07/25 04:37:53;;;;;;;9.65;5.65;;;20.80;99.90;;;;;;5079961;28;20495;-81
2022/07/25 04:40:39;;;;;;;9.10;5.35;;;20.80;99.90;;;;;;5076694;28;20048;-81
2022/07/25 04:43:25;;;;;;;8.65;5.60;;;20.80;99.90;;;;;;5094948;28;20510;-82
2022/07/25 04:46:11;;;;;;;8.85;5.85;;;20.80;99.90;;;;;;5074553;28;20109;-81
2022/07/25 04:48:58;;;;;;;6.82;4.95;;;20.80;99.90;;;;;;5079868;28;20141;-82
2022/07/25 04:51:44;;;;;;;8.43;5.03;;;20.80;99.90;;;;;;5061963;28;20059;-82
2022/07/25 04:54:30;;;;;;;7.78;4.90;;;20.80;99.90;;;;;;5077636;28;20575;-83
2022/07/25 04:57:16;;;;;;;7.53;5.00;;;20.90;99.90;;;;;;5078892;28;20415;-82
2022/07/25 05:00:05;;;;;;;12.30;4.63;;;20.90;99.90;;;;;;5092710;28;20048;-83
2022/07/25 05:02:51;;;;;;;7.80;5.65;;;20.90;99.90;;;;;;5075812;28;20052;-83
2022/07/25 05:05:37;;;;;;;8.18;5.93;;;21.00;99.90;;;;;;5091379;28;20048;-83
2022/07/25 05:08:23;;;;;;;7.75;5.43;;;21.00;99.90;;;;;;5074677;28;20109;-81
2022/07/25 05:11:10;;;;;;;9.13;6.07;;;21.00;99.90;;;;;;5074384;28;20435;-82
2022/07/25 05:13:56;;;;;;;11.90;6.68;;;21.10;99.90;;;;;;5074377;28;20373;-82
2022/07/25 05:16:42;;;;;;;10.82;6.20;;;21.10;99.90;;;;;;5093523;28;20072;-81
2022/07/25 05:19:28;;;;;;;10.07;6.40;;;21.10;99.90;;;;;;5092363;28;20522;-82
2022/07/25 05:22:15;;;;;;;9.02;6.20;;;21.20;99.90;;;;;;5091861;28;20052;-81
2022/07/25 05:25:01;;;;;;;11.77;6.75;;;21.20;99.90;;;;;;5091542;28;20429;-81
2022/07/25 05:27:47;;;;;;;9.65;6.28;;;21.20;99.90;;;;;;5092468;28;20047;-82
2022/07/25 05:30:34;;;;;;;8.60;6.25;;;21.20;99.90;;;;;;5077600;28;20078;-85
2022/07/25 05:33:22;;;;;;;9.45;6.90;;;21.20;99.90;;;;;;5094133;28;20044;-84
2022/07/25 05:36:09;;;;;;;9.48;6.18;;;21.20;99.90;;;;;;5086232;28;20044;-84
2022/07/25 05:38:55;;;;;;;9.52;6.93;;;21.20;99.90;;;;;;5051131;28;20052;-82
2022/07/25 05:41:41;;;;;;;11.50;6.55;;;21.20;99.90;;;;;;5042305;28;20086;-83
2022/07/25 05:44:28;;;;;;;11.98;6.90;;;21.20;99.90;;;;;;5076338;28;20045;-86
2022/07/25 05:47:14;;;;;;;13.10;7.03;;;21.20;99.90;;;;;;5081523;28;20054;-85
2022/07/25 05:50:01;;;;;;;8.45;5.75;;;21.20;99.90;;;;;;5060612;28;20082;-81
2022/07/25 05:52:47;;;;;;;10.80;7.50;;;21.30;99.90;;;;;;5078651;28;20041;-83
2022/07/25 05:55:33;;;;;;;10.07;6.85;;;21.20;99.90;;;;;;5077159;28;20082;-88
2022/07/25 05:58:20;;;;;;;10.70;6.80;;;21.20;99.90;;;;;;5077390;28;20049;-84
2022/07/25 06:01:07;;;;;;;9.95;7.43;;;21.20;99.90;;;;;;5081002;28;20052;-84
2022/07/25 06:03:53;;;;;;;10.13;7.38;;;21.30;99.90;;;;;;5083404;28;20052;-81
2022/07/25 06:06:40;;;;;;;13.80;7.63;;;21.30;99.90;;;;;;5084620;28;20190;-87
2022/07/25 06:09:31;;;;;;;9.77;7.18;;;21.40;99.90;;;;;;5079624;28;20052;-84
2022/07/25 06:12:17;;;;;;;9.55;7.50;;;21.50;99.90;;;;;;5056539;28;20048;-85
2022/07/25 06:15:05;;;;;;;9.80;7.13;;;21.60;99.90;;;;;;5059850;28;20036;-85
2022/07/25 06:17:51;;;;;;;10.63;7.47;;;21.80;99.90;;;;;;5075232;28;20044;-88
2022/07/25 06:20:37;;;;;;;12.38;7.68;;;21.80;99.90;;;;;;5075402;28;20071;-84
2022/07/25 06:23:23;;;;;;;11.88;7.85;;;22.00;99.90;;;;;;5078975;28;20048;-86
2022/07/25 06:26:10;;;;;;;10.52;7.57;;;22.00;99.90;;;;;;5075929;28;20040;-83
2022/07/25 06:28:56;;;;;;;12.02;7.90;;;22.10;99.90;;;;;;5092145;28;20382;-88
2022/07/25 06:31:42;;;;;;;13.00;8.25;;;22.10;99.90;;;;;;5093550;28;20048;-84
2022/07/25 06:34:29;;;;;;;9.95;7.68;;;22.00;99.90;;;;;;5073094;28;20044;-81
2022/07/25 06:37:15;;;;;;;9.73;7.40;;;22.00;99.90;;;;;;5093353;28;20044;-83
2022/07/25 06:40:01;;;;;;;12.02;7.78;;;21.90;99.90;;;;;;5076408;28;20483;-81
2022/07/25 06:42:48;;;;;;;9.88;6.82;;;21.90;99.90;;;;;;5075740;28;20055;-84
2022/07/25 06:45:34;;;;;;;12.20;8.60;;;22.00;99.90;;;;;;5075363;28;20040;-84
2022/07/25 06:48:22;;;;;;;11.90;7.90;;;22.10;99.90;;;;;;5077281;28;20514;-82
2022/07/25 06:51:09;;;;;;;9.73;7.35;;;22.20;99.90;;;;;;5083549;28;20080;-85
2022/07/25 06:53:55;;;;;;;11.02;8.15;;;22.30;99.90;;;;;;5067193;28;20039;-82
2022/07/25 06:56:41;;;;;;;14.15;8.38;;;22.40;99.90;;;;;;5094517;28;20044;-88
2022/07/25 06:59:28;;;;;;;12.38;7.53;;;22.50;99.90;;;;;;5070324;28;20055;-81
2022/07/25 07:02:14;;;;;;;12.77;8.25;;;22.50;99.90;;;;;;5095950;28;20048;-81
2022/07/25 07:05:01;;;;;;;11.13;7.93;;;22.60;99.90;;;;;;5080891;28;20072;-81
2022/07/25 07:07:48;;;;;;;13.98;8.20;;;22.60;99.90;;;;;;5059418;28;20062;-81
2022/07/25 07:10:35;;;;;;;12.88;8.35;;;22.70;99.90;;;;;;5076498;28;20083;-83
2022/07/25 07:13:22;;;;;;;12.55;8.50;;;22.80;99.90;;;;;;5043970;28;20049;-82
2022/07/25 07:16:09;;;;;;;11.63;8.05;;;23.00;99.90;;;;;;5057355;28;20439;-83
2022/07/25 07:18:56;;;;;;;12.88;7.07;;;23.10;99.90;;;;;;5074154;28;20185;-83
2022/07/25 07:21:44;;;;;;;9.98;6.88;;;23.20;99.90;;;;;;5066201;28;20053;-82
2022/07/25 07:24:30;;;;;;;8.45;6.30;;;23.30;99.90;;;;;;5065030;28;20041;-84
2022/07/25 07:27:17;;;;;;;9.75;5.85;;;23.30;99.90;;;;;;5057736;28;20040;-83
2022/07/25 07:30:04;;;;;;;8.60;5.70;;;23.30;99.90;;;;;;5074046;28;20051;-82
2022/07/25 07:32:50;;;;;;;7.95;5.70;;;23.30;99.90;;;;;;5075195;28;20041;-81
2022/07/25 07:35:37;;;;;;;7.82;5.10;;;23.30;99.90;;;;;;5070551;28;20127;-83
2022/07/25 07:38:24;;;;;;;11.02;4.97;;;23.40;99.90;;;;;;5037675;28;20051;-82
2022/07/25 07:41:11;;;;;;;6.28;4.15;;;23.40;99.90;;;;;;5065152;28;20053;-82
2022/07/25 07:43:58;;;;;;;8.60;4.85;;;23.40;99.90;;;;;;5069864;28;20057;-83
2022/07/25 07:46:44;;;;;;;9.60;4.35;;;23.40;99.90;;;;;;5070989;28;20050;-84
2022/07/25 07:49:30;;;;;;;5.32;3.40;;;23.40;99.90;;;;;;5070745;28;20040;-83
2022/07/25 07:52:16;;;;;;;9.13;4.10;;;23.30;99.90;;;;;;5070411;28;20040;-83
2022/07/25 07:58:09;;;;;;;7.80;5.13;;;23.10;99.90;;;;;;5053065;28;20040;-81
2022/07/25 08:00:56;;;;;;;7.82;3.90;;;22.90;99.90;;;;;;5072337;28;20408;-80
2022/07/25 08:03:42;;;;;;;7.72;3.00;;;22.80;99.90;;;;;;5052877;28;20052;-84
2022/07/25 08:06:31;;;;;;;7.63;2.65;;;22.70;99.90;;;;;;5079962;28;20051;-86
2022/07/25 08:09:18;;;;;;;11.07;3.00;;;22.60;99.90;;;;;;5092060;28;20078;-83
2022/07/25 08:12:05;;;;;;;11.13;3.03;;;22.50;99.90;;;;;;5092772;28;20047;-86
2022/07/25 08:14:51;;;;;;;7.72;2.97;;;22.40;99.90;;;;;;5092047;28;20075;-87
2022/07/25 08:17:38;;;;;;;5.13;2.97;;;22.30;99.90;;;;;;5094615;28;20412;-82
2022/07/25 08:20:24;;;;;;;4.93;2.80;;;22.20;99.90;;;;;;5073378;28;20351;-82
2022/07/25 08:23:10;;;;;;;6.40;2.45;;;22.30;99.90;;;;;;5094036;28;20051;-81
2022/07/25 08:25:57;;;;;;;5.20;2.47;;;22.30;99.90;;;;;;5091550;28;20055;-81
2022/07/25 08:28:43;;;;;;;5.10;2.67;;;22.30;99.90;;;;;;5074437;28;20415;-83
2022/07/25 08:31:30;;;;;;;6.60;2.95;;;22.30;99.90;;;;;;5075954;28;20099;-82
2022/07/25 08:34:21;;;;;;;7.13;2.63;;;22.30;99.90;;;;;;5090680;28;20048;-83
2022/07/25 08:37:07;;;;;;;5.75;2.42;;;22.20;99.90;;;;;;5094335;28;20106;-83
2022/07/25 08:39:53;;;;;;;3.65;2.13;;;22.20;99.90;;;;;;5090080;28;20044;-82
2022/07/25 08:42:41;;;;;;;6.47;1.80;;;22.30;99.90;;;;;;5091663;28;20048;-80
2022/07/25 08:45:27;;;;;;;4.68;1.80;;;22.30;99.90;;;;;;5091972;28;20040;-79
2022/07/25 08:48:17;;;;;;;7.97;2.67;;;22.40;99.90;;;;;;5073334;28;20048;-80
2022/07/25 08:51:04;;;;;;;5.55;1.92;;;22.50;99.90;;;;;;5089890;28;20109;-80
2022/07/25 08:53:51;;;;;;;4.63;1.65;;;22.60;99.90;;;;;;5074490;28;20514;-85
2022/07/25 08:56:37;;;;;;;5.30;1.83;;;22.80;99.90;;;;;;5055569;28;20048;-80
2022/07/25 08:59:26;;;;;;;4.03;1.98;;;22.90;99.90;;;;;;5074085;28;20036;-79
2022/07/25 09:02:14;;;;;;;7.03;1.90;;;23.00;99.90;;;;;;5056757;28;20109;-84
2022/07/25 09:05:00;;;;;;;6.03;1.83;;;23.10;99.90;;;;;;5094047;28;20044;-86
2022/07/25 09:07:46;;;;;;;7.07;1.73;;;23.20;99.90;;;;;;5064082;28;20053;-83
2022/07/25 09:10:34;;;;;;;5.32;2.25;;;23.30;99.90;;;;;;5079309;28;20041;-84
2022/07/25 09:13:22;;;;;;;4.00;1.50;;;23.30;99.90;;;;;;5075724;28;20132;-85
2022/07/25 09:16:08;;;;;;;8.00;1.98;;;23.20;99.90;;;;;;5055998;28;20076;-87
2022/07/25 09:19:25;;;;;;;5.95;1.77;;;23.50;99.90;;;;;;5072380;28;20575;-86
2022/07/25 09:22:11;;;;;;;4.88;1.77;;;23.40;99.90;;;;;;5074040;28;20056;-83
2022/07/25 09:24:57;;;;;;;4.28;1.63;;;23.40;99.90;;;;;;5062879;28;20086;-85
2022/07/25 09:27:44;;;;;;;6.95;1.77;;;23.40;99.90;;;;;;5058014;28;20056;-83
2022/07/25 09:30:30;;;;;;;6.90;1.80;;;23.10;99.90;;;;;;5076567;28;20186;-85
2022/07/25 09:33:23;;;;;;;6.57;1.98;;;22.90;99.90;;;;;;5055421;28;20048;-85
2022/07/25 09:36:11;;;;;;;13.55;3.50;;;22.70;99.90;;;;;;5075652;28;20040;-86
2022/07/25 09:39:04;;;;;;;7.32;2.15;;;22.50;99.90;;;;;;5080719;28;20048;-85
2022/07/25 09:41:52;;;;;;;6.90;2.00;;;22.40;99.90;;;;;;5081812;28;20047;-84
2022/07/25 09:44:39;;;;;;;4.45;2.15;;;22.30;99.90;;;;;;5081345;28;20044;-88
2022/07/25 09:47:25;;;;;;;6.03;2.58;;;22.30;99.90;;;;;;5055652;28;20049;-82
2022/07/25 09:50:12;;;;;;;7.82;2.17;;;22.30;99.90;;;;;;5057883;28;20135;-83
2022/07/25 09:53:01;;;;;;;6.28;1.98;;;22.40;99.90;;;;;;5041594;28;20056;-81
2022/07/25 09:55:49;;;;;;;5.05;2.10;;;22.40;99.90;;;;;;5070880;28;20084;-82
2022/07/25 09:58:35;;;;;;;5.68;2.42;;;22.70;99.90;;;;;;5059466;28;20117;-80
2022/07/25 10:01:27;;;;;;;9.48;3.10;;;23.10;99.90;;;;;;5077601;28;20040;-76
2022/07/25 10:04:21;;;;;;;6.68;2.75;;;23.50;99.90;;;;;;5077685;28;20044;-78
2022/07/25 11:11:39;;;;;;;8.38;2.30;;;22.70;99.90;;;;;;4927547;23;20091;-77
2022/07/25 11:14:31;;;;;;;12.45;2.97;;;22.70;99.90;;;;;;4925799;29;20048;-78
2022/07/25 11:17:21;;;;;;;9.43;2.33;;;22.50;99.90;;;;;;4909011;29;20060;-81
2022/07/25 11:20:10;;;;;;;8.13;2.53;;;22.50;99.90;;;;;;4906994;29;20055;-84
2022/07/25 11:22:56;;;;;;;10.13;2.20;;;22.50;99.90;;;;;;4924603;29;20055;-84
2022/07/25 11:25:42;;;;;;;7.30;2.50;;;22.50;99.90;;;;;;4912374;29;20060;-79
2022/07/25 11:28:48;;;;;;;8.23;2.58;;;22.60;99.90;;;;;;4909747;29;20108;-85
2022/07/25 11:31:35;;;;;;;10.55;2.10;;;22.50;99.90;;;;;;4925622;29;20108;-86
2022/07/25 11:34:24;;;;;;;7.75;2.58;;;22.50;99.90;;;;;;4923545;29;20049;-86
2022/07/25 11:37:12;;;;;;;7.00;2.30;;;22.50;99.90;;;;;;4923834;29;20571;-84
2022/07/25 11:39:59;;;;;;;9.60;2.15;;;22.70;99.90;;;;;;4922420;29;20110;-85
2022/07/25 11:42:58;;;;;;;9.98;3.03;;;23.20;99.90;;;;;;4923809;29;20056;-85
2022/07/25 11:45:55;;;;;;;9.65;1.98;;;;;;;;;;4897716;29;20048;-84
2022/07/25 11:48:41;;;;;;;7.47;2.00;;;23.30;99.90;;;;;;4895086;29;20131;-83
2022/07/25 11:51:36;;;;;;;9.70;1.90;;;23.10;99.90;;;;;;4918039;29;20056;-82
2022/07/25 11:54:22;;;;;;;13.98;2.97;;;23.00;99.90;;;;;;4919622;29;20529;-78
2022/07/25 11:57:19;;;;;;;8.63;2.03;;;23.20;99.90;;;;;;4917293;29;20567;-84
2022/07/25 12:00:26;;;;;;;8.70;2.10;;;23.40;99.90;;;;;;4921424;29;20496;-83
2022/07/25 12:03:21;;;;;;;11.57;2.45;;;23.50;99.90;;;;;;4917100;29;20126;-80
2022/07/25 12:06:10;;;;;;;6.47;2.55;;;24.00;99.90;;;;;;4917030;29;20415;-83
2022/07/25 12:08:57;;;;;;;9.57;1.70;;;24.20;99.90;;;;;;4908463;29;20527;-82
2022/07/25 12:11:46;;;;;;;7.68;2.00;;;23.70;99.90;;;;;;4901059;29;20544;-80
2022/07/25 12:14:44;;;;;;;6.43;2.10;;;23.30;99.90;;;;;;4897243;29;20049;-81
2022/07/25 12:17:30;;;;;;;7.07;2.10;;;23.10;99.90;;;;;;4900991;29;20052;-81
2022/07/25 12:20:22;;;;;;;10.30;2.45;;;23.10;99.90;;;;;;4904614;29;20048;-90
2022/07/25 12:23:10;;;;;;;8.57;2.42;;;23.30;99.90;;;;;;4907377;29;20487;-85
2022/07/25 12:25:57;;;;;;;8.98;3.35;;;23.40;99.90;;;;;;4906673;29;20564;-77
2022/07/25 12:28:43;;;;;;;10.48;2.28;;;23.40;99.90;;;;;;4911073;29;20048;-83
2022/07/25 12:31:29;;;;;;;9.05;2.10;;;23.40;99.90;;;;;;4902077;29;20754;-78
2022/07/25 12:34:15;;;;;;;11.55;2.22;;;23.70;99.90;;;;;;4899914;29;20527;-79
2022/07/25 12:37:01;;;;;;;8.68;2.10;;;23.60;99.90;;;;;;4904351;29;20100;-78
2022/07/25 12:39:48;;;;;;;7.65;2.20;;;23.60;99.90;;;;;;4901677;29;20504;-81
2022/07/25 12:42:34;;;;;;;12.23;3.40;;;24.00;99.90;;;;;;4900619;29;20519;-84
2022/07/25 12:45:21;;;;;;;9.25;2.30;;;24.50;99.90;;;;;;4899020;29;20063;-84
2022/07/25 12:48:08;;;;;;;7.05;1.88;;;24.40;99.90;;;;;;4899530;29;20469;-81
2022/07/25 12:50:55;;;;;;;9.70;2.05;;;24.40;99.90;;;;;;4903060;29;20493;-82
2022/07/25 12:53:41;;;;;;;7.35;2.03;;;24.10;99.90;;;;;;4901513;29;20056;-83
2022/07/25 12:56:30;;;;;;;8.30;2.67;;;23.80;99.90;;;;;;4902683;29;20049;-80
2022/07/25 12:59:16;;;;;;;8.30;1.90;;;23.70;99.90;;;;;;4902263;29;20493;-80
2022/07/25 13:02:03;;;;;;;10.80;2.90;;;23.40;99.90;;;;;;4906984;29;20060;-79
2022/07/25 13:04:49;;;;;;;7.97;1.83;;;23.80;99.90;;;;;;4911967;29;20051;-82
2022/07/25 13:07:36;;;;;;;8.15;1.67;;;23.80;99.90;;;;;;4907719;29;20056;-82
2022/07/25 13:10:22;;;;;;;9.07;1.80;;;23.50;99.90;;;;;;4904600;29;20132;-86
2022/07/25 13:13:13;;;;;;;7.65;1.95;;;23.20;99.90;;;;;;4910349;29;20052;-84
2022/07/25 13:16:01;;;;;;;6.30;2.60;;;23.00;99.90;;;;;;4912856;29;20053;-85
2022/07/25 13:18:47;;;;;;;6.43;1.63;;;22.90;99.90;;;;;;4907588;29;20139;-84
2022/07/25 13:21:34;;;;;;;7.18;2.50;;;23.00;99.90;;;;;;4905664;29;20057;-83
2022/07/25 13:24:20;;;;;;;9.18;2.60;;;23.20;99.90;;;;;;4904188;29;20052;-84
2022/07/25 13:27:07;;;;;;;9.95;2.30;;;23.30;99.90;;;;;;4916372;29;20045;-86
2022/07/25 13:29:56;;;;;;;8.57;1.90;;;23.20;99.90;;;;;;4889833;29;20063;-81
2022/07/25 13:32:43;;;;;;;6.90;2.05;;;23.40;99.90;;;;;;4905491;29;20112;-85
2022/07/25 13:35:30;;;;;;;8.55;2.08;;;23.50;99.90;;;;;;4902293;29;20056;-81
2022/07/25 13:38:16;;;;;;;9.15;2.78;;;23.40;99.90;;;;;;4900014;29;20065;-84
2022/07/25 13:41:04;;;;;;;9.82;3.38;;;23.60;99.80;;;;;;4899706;29;20583;-81
2022/07/25 13:43:50;;;;;;;8.68;2.78;;;23.70;99.90;;;;;;4885123;29;20378;-83
2022/07/25 13:46:37;;;;;;;8.35;2.78;;;23.50;99.90;;;;;;4897539;29;20121;-83
2022/07/25 13:49:24;;;;;;;7.22;1.98;;;24.30;99.60;;;;;;4899314;29;20481;-85
2022/07/25 13:52:10;;;;;;;8.40;2.67;;;24.80;98.50;;;;;;4899105;29;20056;-80
2022/07/25 13:54:56;;;;;;;9.77;2.60;;;24.90;98.30;;;;;;4911198;29;20055;-84
2022/07/25 13:57:42;;;;;;;11.38;2.28;;;25.20;97.80;;;;;;4885340;29;20052;-85
2022/07/25 14:00:29;;;;;;;9.48;2.55;;;25.90;97.00;;;;;;4898106;29;20473;-87
2022/07/25 14:03:15;;;;;;;8.30;2.42;;;26.40;96.60;;;;;;4897012;29;20421;-86
2022/07/25 14:06:03;;;;;;;12.93;2.40;;;26.10;96.50;;;;;;4898120;29;20052;-82
2022/07/25 14:08:49;;;;;;;10.82;2.17;;;25.60;96.60;;;;;;4898209;29;20140;-81
2022/07/25 14:11:36;;;;;;;11.10;2.17;;;25.10;96.70;;;;;;4896155;29;20060;-84
2022/07/25 14:14:22;;;;;;;11.57;2.60;;;24.80;97.80;;;;;;4898387;29;20090;-81
2022/07/25 14:17:08;;;;;;;8.30;2.55;;;25.00;97.60;;;;;;4897995;29;20091;-80
2022/07/25 14:19:55;;;;;;;8.77;2.45;;;25.30;97.40;;;;;;4912938;29;20055;-82
2022/07/25 14:22:42;;;;;;;8.57;2.40;;;24.70;97.40;;;;;;4898747;29;20533;-80
2022/07/25 14:25:29;;;;;;;13.00;2.30;;;24.50;98.10;;;;;;4899631;29;20124;-84
2022/07/25 14:28:15;;;;;;;12.93;3.65;;;24.30;98.10;;;;;;4897736;29;20529;-82
2022/07/25 14:31:02;;;;;;;8.90;2.10;;;24.40;98.60;;;;;;4895527;29;20103;-81
2022/07/25 14:33:48;;;;;;;12.48;3.42;;;25.00;98.50;;;;;;4881499;29;20094;-79
2022/07/25 14:36:34;;;;;;;10.30;2.03;;;24.70;98.40;;;;;;4893338;29;20384;-80
2022/07/25 14:39:20;;;;;;;9.85;2.78;;;24.50;98.80;;;;;;4895868;29;20037;-80
2022/07/25 14:42:10;;;;;;;8.48;2.00;;;24.40;99.10;;;;;;4909788;29;20072;-82
2022/07/25 14:44:56;;;;;;;12.15;2.63;;;24.70;97.70;;;;;;4895577;29;20414;-82
2022/07/25 14:47:45;;;;;;;9.93;2.13;;;25.40;96.30;;;;;;4897152;29;20409;-81
2022/07/25 14:50:32;;;;;;;12.43;2.95;;;25.30;96.40;;;;;;4902797;29;20461;-81
2022/07/25 14:53:18;;;;;;;11.23;2.60;;;24.70;97.40;;;;;;4902276;29;20055;-80
2022/07/25 14:56:06;;;;;;;11.18;2.63;;;24.30;98.00;;;;;;4897565;29;20060;-81
2022/07/25 14:58:52;;;;;;;15.40;2.90;;;24.50;98.20;;;;;;4896984;29;20056;-80
2022/07/25 15:01:39;;;;;;;11.98;2.33;;;25.30;97.70;;;;;;4896038;29;20056;-77
2022/07/25 15:04:25;;;;;;;7.38;2.15;;;25.50;96.90;;;;;;4894512;29;20088;-79
2022/07/25 15:07:14;;;;;;;9.68;2.67;;;25.50;96.80;;;;;;4896460;29;20056;-82
2022/07/25 15:10:02;;;;;;;9.85;2.78;;;25.10;97.00;;;;;;4895819;29;20064;-80
2022/07/25 15:12:48;;;;;;;11.82;2.58;;;24.60;97.50;;;;;;4896000;29;20056;-79
2022/07/25 15:15:35;;;;;;;14.93;2.95;;;24.30;97.70;;;;;;4897001;29;20053;-82
2022/07/25 15:18:21;;;;;;;12.45;2.50;;;23.90;98.40;;;;;;4900626;29;20471;-79
2022/07/25 15:21:07;;;;;;;9.75;3.30;;;23.60;99.10;;;;;;4916682;29;20049;-75
2022/07/25 15:23:56;;;;;;;13.40;3.17;;;23.40;99.70;;;;;;4902809;29;20108;-81
2022/07/25 15:26:43;;;;;;;10.90;2.53;;;23.20;99.90;;;;;;4902638;29;20048;-82
2022/07/25 15:29:29;;;;;;;11.70;2.90;;;23.00;99.90;;;;;;4898435;29;20056;-78
2022/07/25 15:32:16;;;;;;;10.95;2.90;;;22.80;99.90;;;;;;4886226;29;20056;-82
2022/07/25 15:35:03;;;;;;;9.85;2.25;;;22.80;99.90;;;;;;4898665;29;20102;-82
2022/07/25 15:37:52;;;;;;;11.32;2.55;;;23.10;99.90;;;;;;4896428;29;20064;-84
2022/07/25 15:40:38;;;;;;;10.43;2.08;;;23.30;99.90;;;;;;4898236;29;20063;-79